sensor_id;sensor_type;location;lat;lon;timestamp;P1;durP1;ratioP1;P2;durP2;ratioP2
37847;SDS011;23688;33.130;-117.188;2023-02-14T00:00:25;17.17;;;3.63;;
37847;SDS011;23688;33.130;-117.188;2023-02-14T00:02:52;18.20;;;3.95;;
37847;SDS011;23688;33.130;-117.188;2023-02-14T00:05:19;18.52;;;2.97;;
37847;SDS011;23688;33.130;-117.188;2023-02-14T00:07:45;15.52;;;3.20;;
37847;SDS011;23688;33.130;-117.188;2023-02-14T00:10:11;13.27;;;3.22;;
37847;SDS011;23688;33.130;-117.188;2023-02-14T00:12:38;14.93;;;3.53;;
37847;SDS011;23688;33.130;-117.188;2023-02-14T00:15:04;14.68;;;3.72;;
37847;SDS011;23688;33.130;-117.188;2023-02-14T00:17:53;19.55;;;3.80;;
37847;SDS011;23688;33.130;-117.188;2023-02-14T00:20:26;19.15;;;3.03;;
37847;SDS011;23688;33.130;-117.188;2023-02-14T00:22:53;16.67;;;3.40;;
37847;SDS011;23688;33.130;-117.188;2023-02-14T00:25:20;15.88;;;3.20;;
37847;SDS011;23688;33.130;-117.188;2023-02-14T00:27:46;14.40;;;2.42;;
37847;SDS011;23688;33.130;-117.188;2023-02-14T00:30:13;18.38;;;2.63;;
37847;SDS011;23688;33.130;-117.188;2023-02-14T00:32:40;16.17;;;2.88;;
37847;SDS011;23688;33.130;-117.188;2023-02-14T00:35:08;18.63;;;3.15;;
37847;SDS011;23688;33.130;-117.188;2023-02-14T00:37:36;19.85;;;2.90;;
37847;SDS011;23688;33.130;-117.188;2023-02-14T00:40:03;18.08;;;2.97;;
37847;SDS011;23688;33.130;-117.188;2023-02-14T00:42:30;21.60;;;3.03;;
37847;SDS011;23688;33.130;-117.188;2023-02-14T00:44:57;14.93;;;2.83;;
37847;SDS011;23688;33.130;-117.188;2023-02-14T00:47:23;16.90;;;2.40;;
37847;SDS011;23688;33.130;-117.188;2023-02-14T00:49:50;21.05;;;2.80;;
37847;SDS011;23688;33.130;-117.188;2023-02-14T00:52:16;24.02;;;3.75;;
37847;SDS011;23688;33.130;-117.188;2023-02-14T00:54:43;19.95;;;3.28;;
37847;SDS011;23688;33.130;-117.188;2023-02-14T00:57:09;22.98;;;3.42;;
37847;SDS011;23688;33.130;-117.188;2023-02-14T00:59:36;28.95;;;3.95;;
37847;SDS011;23688;33.130;-117.188;2023-02-14T01:02:02;20.45;;;3.50;;
37847;SDS011;23688;33.130;-117.188;2023-02-14T01:04:29;18.45;;;3.95;;
37847;SDS011;23688;33.130;-117.188;2023-02-14T01:06:55;21.02;;;2.92;;
37847;SDS011;23688;33.130;-117.188;2023-02-14T01:09:22;14.82;;;3.20;;
37847;SDS011;23688;33.130;-117.188;2023-02-14T01:11:48;25.88;;;4.25;;
37847;SDS011;23688;33.130;-117.188;2023-02-14T01:14:14;27.38;;;3.42;;
37847;SDS011;23688;33.130;-117.188;2023-02-14T01:16:41;17.65;;;4.13;;
37847;SDS011;23688;33.130;-117.188;2023-02-14T01:19:07;16.25;;;4.40;;
37847;SDS011;23688;33.130;-117.188;2023-02-14T01:21:34;21.50;;;3.63;;
37847;SDS011;23688;33.130;-117.188;2023-02-14T01:24:02;18.65;;;3.80;;
37847;SDS011;23688;33.130;-117.188;2023-02-14T01:26:30;17.50;;;3.20;;
37847;SDS011;23688;33.130;-117.188;2023-02-14T01:28:57;15.30;;;2.75;;
37847;SDS011;23688;33.130;-117.188;2023-02-14T01:31:28;25.77;;;4.32;;
37847;SDS011;23688;33.130;-117.188;2023-02-14T01:33:56;19.60;;;3.13;;
37847;SDS011;23688;33.130;-117.188;2023-02-14T01:36:24;17.42;;;3.33;;
37847;SDS011;23688;33.130;-117.188;2023-02-14T01:38:54;20.67;;;3.80;;
37847;SDS011;23688;33.130;-117.188;2023-02-14T01:41:23;20.48;;;3.60;;
37847;SDS011;23688;33.130;-117.188;2023-02-14T01:43:58;24.83;;;4.03;;
37847;SDS011;23688;33.130;-117.188;2023-02-14T01:46:25;23.80;;;3.78;;
37847;SDS011;23688;33.130;-117.188;2023-02-14T01:48:55;26.98;;;4.63;;
37847;SDS011;23688;33.130;-117.188;2023-02-14T01:51:30;26.95;;;5.18;;
37847;SDS011;23688;33.130;-117.188;2023-02-14T01:53:58;30.63;;;4.85;;
37847;SDS011;23688;33.130;-117.188;2023-02-14T01:56:27;18.88;;;3.72;;
37847;SDS011;23688;33.130;-117.188;2023-02-14T01:59:07;20.20;;;3.85;;
37847;SDS011;23688;33.130;-117.188;2023-02-14T02:01:36;22.20;;;4.60;;
37847;SDS011;23688;33.130;-117.188;2023-02-14T02:04:08;18.45;;;3.97;;
37847;SDS011;23688;33.130;-117.188;2023-02-14T02:06:39;18.85;;;3.90;;
37847;SDS011;23688;33.130;-117.188;2023-02-14T02:09:14;18.55;;;4.40;;
37847;SDS011;23688;33.130;-117.188;2023-02-14T02:11:56;19.40;;;4.25;;
37847;SDS011;23688;33.130;-117.188;2023-02-14T02:14:22;22.92;;;4.57;;
37847;SDS011;23688;33.130;-117.188;2023-02-14T02:17:01;20.70;;;4.35;;
37847;SDS011;23688;33.130;-117.188;2023-02-14T02:22:51;28.25;;;4.80;;
37847;SDS011;23688;33.130;-117.188;2023-02-14T02:26:05;25.88;;;5.18;;
37847;SDS011;23688;33.130;-117.188;2023-02-14T02:31:52;19.40;;;3.60;;
37847;SDS011;23688;33.130;-117.188;2023-02-14T02:40:40;23.63;;;4.32;;
37847;SDS011;23688;33.130;-117.188;2023-02-14T02:49:19;31.88;;;4.88;;
37847;SDS011;23688;33.130;-117.188;2023-02-14T02:55:02;29.45;;;4.60;;
37847;SDS011;23688;33.130;-117.188;2023-02-14T02:57:38;27.67;;;4.95;;
37847;SDS011;23688;33.130;-117.188;2023-02-14T03:00:07;20.85;;;3.88;;
37847;SDS011;23688;33.130;-117.188;2023-02-14T03:02:38;26.88;;;4.07;;
37847;SDS011;23688;33.130;-117.188;2023-02-14T03:05:27;24.92;;;4.53;;
37847;SDS011;23688;33.130;-117.188;2023-02-14T03:07:54;17.90;;;3.97;;
37847;SDS011;23688;33.130;-117.188;2023-02-14T03:10:24;30.38;;;4.93;;
37847;SDS011;23688;33.130;-117.188;2023-02-14T03:15:51;19.25;;;4.38;;
37847;SDS011;23688;33.130;-117.188;2023-02-14T03:24:08;22.98;;;3.67;;
37847;SDS011;23688;33.130;-117.188;2023-02-14T03:26:48;22.70;;;4.30;;
37847;SDS011;23688;33.130;-117.188;2023-02-14T03:29:26;24.95;;;4.55;;
37847;SDS011;23688;33.130;-117.188;2023-02-14T03:32:19;35.67;;;5.15;;
37847;SDS011;23688;33.130;-117.188;2023-02-14T03:34:56;35.15;;;4.68;;
37847;SDS011;23688;33.130;-117.188;2023-02-14T03:37:41;27.45;;;4.82;;
37847;SDS011;23688;33.130;-117.188;2023-02-14T03:40:21;20.42;;;4.10;;
37847;SDS011;23688;33.130;-117.188;2023-02-14T03:43:05;30.73;;;5.00;;
37847;SDS011;23688;33.130;-117.188;2023-02-14T03:45:46;23.60;;;4.13;;
37847;SDS011;23688;33.130;-117.188;2023-02-14T03:48:21;27.40;;;6.60;;
37847;SDS011;23688;33.130;-117.188;2023-02-14T03:53:18;23.20;;;4.93;;
37847;SDS011;23688;33.130;-117.188;2023-02-14T03:55:58;30.52;;;4.32;;
37847;SDS011;23688;33.130;-117.188;2023-02-14T03:58:38;19.58;;;4.18;;
37847;SDS011;23688;33.130;-117.188;2023-02-14T04:01:22;29.08;;;5.13;;
37847;SDS011;23688;33.130;-117.188;2023-02-14T04:03:54;30.38;;;5.72;;
37847;SDS011;23688;33.130;-117.188;2023-02-14T04:06:22;29.55;;;4.60;;
37847;SDS011;23688;33.130;-117.188;2023-02-14T04:08:48;25.73;;;5.38;;
37847;SDS011;23688;33.130;-117.188;2023-02-14T04:11:15;38.38;;;5.93;;
37847;SDS011;23688;33.130;-117.188;2023-02-14T04:13:41;36.95;;;5.88;;
37847;SDS011;23688;33.130;-117.188;2023-02-14T04:16:08;27.67;;;5.03;;
37847;SDS011;23688;33.130;-117.188;2023-02-14T04:18:35;31.38;;;5.15;;
37847;SDS011;23688;33.130;-117.188;2023-02-14T04:21:20;38.78;;;6.13;;
37847;SDS011;23688;33.130;-117.188;2023-02-14T04:23:46;30.27;;;6.97;;
37847;SDS011;23688;33.130;-117.188;2023-02-14T04:26:13;28.08;;;6.35;;
37847;SDS011;23688;33.130;-117.188;2023-02-14T04:28:39;32.28;;;6.13;;
37847;SDS011;23688;33.130;-117.188;2023-02-14T04:31:05;40.08;;;7.13;;
37847;SDS011;23688;33.130;-117.188;2023-02-14T04:33:32;38.05;;;5.85;;
37847;SDS011;23688;33.130;-117.188;2023-02-14T04:35:59;38.35;;;7.28;;
37847;SDS011;23688;33.130;-117.188;2023-02-14T04:38:26;28.90;;;7.03;;
37847;SDS011;23688;33.130;-117.188;2023-02-14T04:40:52;31.17;;;5.93;;
37847;SDS011;23688;33.130;-117.188;2023-02-14T04:43:18;39.53;;;5.75;;
37847;SDS011;23688;33.130;-117.188;2023-02-14T04:45:45;29.45;;;5.95;;
37847;SDS011;23688;33.130;-117.188;2023-02-14T04:48:12;34.17;;;5.10;;
37847;SDS011;23688;33.130;-117.188;2023-02-14T04:50:38;29.17;;;5.65;;
37847;SDS011;23688;33.130;-117.188;2023-02-14T04:53:05;30.27;;;5.72;;
37847;SDS011;23688;33.130;-117.188;2023-02-14T04:55:31;34.80;;;6.75;;
37847;SDS011;23688;33.130;-117.188;2023-02-14T04:57:59;25.92;;;5.63;;
37847;SDS011;23688;33.130;-117.188;2023-02-14T05:00:25;32.95;;;5.40;;
37847;SDS011;23688;33.130;-117.188;2023-02-14T05:02:51;36.25;;;5.30;;
37847;SDS011;23688;33.130;-117.188;2023-02-14T05:05:17;28.48;;;5.10;;
37847;SDS011;23688;33.130;-117.188;2023-02-14T05:07:44;28.05;;;5.35;;
37847;SDS011;23688;33.130;-117.188;2023-02-14T05:10:12;32.87;;;5.20;;
37847;SDS011;23688;33.130;-117.188;2023-02-14T05:12:39;33.05;;;5.25;;
37847;SDS011;23688;33.130;-117.188;2023-02-14T05:15:06;26.88;;;4.82;;
37847;SDS011;23688;33.130;-117.188;2023-02-14T05:17:33;41.25;;;6.82;;
37847;SDS011;23688;33.130;-117.188;2023-02-14T05:20:00;31.05;;;6.18;;
37847;SDS011;23688;33.130;-117.188;2023-02-14T05:22:30;30.95;;;5.00;;
37847;SDS011;23688;33.130;-117.188;2023-02-14T05:24:57;22.85;;;5.10;;
37847;SDS011;23688;33.130;-117.188;2023-02-14T05:27:23;36.40;;;5.80;;
37847;SDS011;23688;33.130;-117.188;2023-02-14T05:29:50;26.50;;;5.63;;
37847;SDS011;23688;33.130;-117.188;2023-02-14T05:32:16;29.17;;;5.32;;
37847;SDS011;23688;33.130;-117.188;2023-02-14T05:34:42;38.47;;;5.97;;
37847;SDS011;23688;33.130;-117.188;2023-02-14T05:37:08;31.60;;;5.70;;
37847;SDS011;23688;33.130;-117.188;2023-02-14T05:39:35;25.10;;;5.40;;
37847;SDS011;23688;33.130;-117.188;2023-02-14T05:42:01;43.20;;;6.78;;
37847;SDS011;23688;33.130;-117.188;2023-02-14T05:44:28;24.58;;;5.30;;
37847;SDS011;23688;33.130;-117.188;2023-02-14T05:46:54;31.23;;;5.88;;
37847;SDS011;23688;33.130;-117.188;2023-02-14T05:49:21;26.67;;;5.40;;
37847;SDS011;23688;33.130;-117.188;2023-02-14T05:51:48;36.92;;;5.13;;
37847;SDS011;23688;33.130;-117.188;2023-02-14T05:54:14;38.15;;;6.80;;
37847;SDS011;23688;33.130;-117.188;2023-02-14T05:56:41;26.27;;;5.18;;
37847;SDS011;23688;33.130;-117.188;2023-02-14T05:59:07;38.75;;;6.75;;
37847;SDS011;23688;33.130;-117.188;2023-02-14T06:01:33;41.47;;;6.18;;
37847;SDS011;23688;33.130;-117.188;2023-02-14T06:04:00;35.83;;;6.05;;
37847;SDS011;23688;33.130;-117.188;2023-02-14T06:06:26;30.73;;;5.05;;
37847;SDS011;23688;33.130;-117.188;2023-02-14T06:08:52;27.02;;;5.40;;
37847;SDS011;23688;33.130;-117.188;2023-02-14T06:11:19;28.88;;;5.38;;
37847;SDS011;23688;33.130;-117.188;2023-02-14T06:13:45;34.50;;;5.90;;
37847;SDS011;23688;33.130;-117.188;2023-02-14T06:16:12;33.85;;;6.30;;
37847;SDS011;23688;33.130;-117.188;2023-02-14T06:18:38;28.88;;;6.50;;
37847;SDS011;23688;33.130;-117.188;2023-02-14T06:21:04;39.95;;;6.65;;
37847;SDS011;23688;33.130;-117.188;2023-02-14T06:23:40;36.70;;;5.68;;
37847;SDS011;23688;33.130;-117.188;2023-02-14T06:26:07;35.05;;;5.32;;
37847;SDS011;23688;33.130;-117.188;2023-02-14T06:28:33;29.25;;;6.25;;
37847;SDS011;23688;33.130;-117.188;2023-02-14T06:31:00;24.58;;;4.65;;
37847;SDS011;23688;33.130;-117.188;2023-02-14T06:33:26;28.67;;;5.93;;
37847;SDS011;23688;33.130;-117.188;2023-02-14T06:35:53;33.40;;;5.05;;
37847;SDS011;23688;33.130;-117.188;2023-02-14T06:38:19;38.03;;;5.57;;
37847;SDS011;23688;33.130;-117.188;2023-02-14T06:40:45;30.90;;;6.97;;
37847;SDS011;23688;33.130;-117.188;2023-02-14T06:43:11;32.92;;;6.28;;
37847;SDS011;23688;33.130;-117.188;2023-02-14T06:45:38;40.55;;;6.57;;
37847;SDS011;23688;33.130;-117.188;2023-02-14T06:48:08;39.65;;;6.65;;
37847;SDS011;23688;33.130;-117.188;2023-02-14T06:50:34;29.63;;;5.97;;
37847;SDS011;23688;33.130;-117.188;2023-02-14T06:53:03;34.88;;;5.57;;
37847;SDS011;23688;33.130;-117.188;2023-02-14T06:58:52;31.58;;;5.32;;
37847;SDS011;23688;33.130;-117.188;2023-02-14T07:01:18;32.65;;;5.72;;
37847;SDS011;23688;33.130;-117.188;2023-02-14T07:03:45;44.53;;;7.43;;
37847;SDS011;23688;33.130;-117.188;2023-02-14T07:06:11;35.50;;;6.05;;
37847;SDS011;23688;33.130;-117.188;2023-02-14T07:08:37;30.30;;;4.82;;
37847;SDS011;23688;33.130;-117.188;2023-02-14T07:11:07;29.77;;;5.75;;
37847;SDS011;23688;33.130;-117.188;2023-02-14T07:13:33;41.67;;;6.32;;
37847;SDS011;23688;33.130;-117.188;2023-02-14T07:16:00;22.80;;;5.90;;
37847;SDS011;23688;33.130;-117.188;2023-02-14T07:18:26;29.27;;;5.43;;
37847;SDS011;23688;33.130;-117.188;2023-02-14T07:20:52;34.78;;;6.38;;
37847;SDS011;23688;33.130;-117.188;2023-02-14T07:23:19;47.40;;;6.75;;
37847;SDS011;23688;33.130;-117.188;2023-02-14T07:25:45;34.90;;;6.38;;
37847;SDS011;23688;33.130;-117.188;2023-02-14T07:28:11;34.08;;;6.60;;
37847;SDS011;23688;33.130;-117.188;2023-02-14T07:30:38;33.00;;;5.13;;
37847;SDS011;23688;33.130;-117.188;2023-02-14T07:33:05;29.95;;;5.25;;
37847;SDS011;23688;33.130;-117.188;2023-02-14T07:35:31;39.53;;;5.45;;
37847;SDS011;23688;33.130;-117.188;2023-02-14T07:37:59;25.23;;;5.53;;
37847;SDS011;23688;33.130;-117.188;2023-02-14T07:40:26;33.03;;;6.95;;
37847;SDS011;23688;33.130;-117.188;2023-02-14T07:42:58;31.40;;;5.57;;
37847;SDS011;23688;33.130;-117.188;2023-02-14T07:45:25;35.30;;;6.18;;
37847;SDS011;23688;33.130;-117.188;2023-02-14T07:47:52;32.30;;;5.50;;
37847;SDS011;23688;33.130;-117.188;2023-02-14T07:50:20;35.03;;;6.83;;
37847;SDS011;23688;33.130;-117.188;2023-02-14T07:52:47;41.63;;;6.67;;
37847;SDS011;23688;33.130;-117.188;2023-02-14T07:55:14;33.25;;;5.88;;
37847;SDS011;23688;33.130;-117.188;2023-02-14T07:57:40;37.35;;;7.15;;
37847;SDS011;23688;33.130;-117.188;2023-02-14T08:00:07;40.00;;;5.32;;
37847;SDS011;23688;33.130;-117.188;2023-02-14T08:02:34;22.80;;;5.00;;
37847;SDS011;23688;33.130;-117.188;2023-02-14T08:05:01;37.50;;;6.15;;
37847;SDS011;23688;33.130;-117.188;2023-02-14T08:07:27;37.05;;;6.53;;
37847;SDS011;23688;33.130;-117.188;2023-02-14T08:09:54;35.88;;;6.05;;
37847;SDS011;23688;33.130;-117.188;2023-02-14T08:12:20;37.40;;;5.82;;
37847;SDS011;23688;33.130;-117.188;2023-02-14T08:15:04;38.33;;;7.05;;
37847;SDS011;23688;33.130;-117.188;2023-02-14T08:17:49;41.13;;;5.95;;
37847;SDS011;23688;33.130;-117.188;2023-02-14T08:20:15;31.52;;;6.10;;
37847;SDS011;23688;33.130;-117.188;2023-02-14T08:22:41;38.95;;;6.13;;
37847;SDS011;23688;33.130;-117.188;2023-02-14T08:25:08;32.13;;;6.03;;
37847;SDS011;23688;33.130;-117.188;2023-02-14T08:27:34;37.97;;;6.35;;
37847;SDS011;23688;33.130;-117.188;2023-02-14T08:30:00;24.02;;;5.45;;
37847;SDS011;23688;33.130;-117.188;2023-02-14T08:32:27;33.65;;;5.55;;
37847;SDS011;23688;33.130;-117.188;2023-02-14T08:34:55;40.97;;;6.65;;
37847;SDS011;23688;33.130;-117.188;2023-02-14T08:37:22;32.17;;;5.45;;
37847;SDS011;23688;33.130;-117.188;2023-02-14T08:39:48;31.88;;;6.60;;
37847;SDS011;23688;33.130;-117.188;2023-02-14T08:42:15;40.17;;;7.30;;
37847;SDS011;23688;33.130;-117.188;2023-02-14T08:44:41;27.73;;;5.05;;
37847;SDS011;23688;33.130;-117.188;2023-02-14T08:47:07;34.17;;;5.55;;
37847;SDS011;23688;33.130;-117.188;2023-02-14T08:49:34;29.05;;;6.25;;
37847;SDS011;23688;33.130;-117.188;2023-02-14T08:52:05;31.33;;;6.00;;
37847;SDS011;23688;33.130;-117.188;2023-02-14T08:54:32;31.45;;;4.97;;
37847;SDS011;23688;33.130;-117.188;2023-02-14T08:57:00;32.35;;;5.95;;
37847;SDS011;23688;33.130;-117.188;2023-02-14T08:59:27;33.97;;;5.75;;
37847;SDS011;23688;33.130;-117.188;2023-02-14T09:01:54;28.27;;;6.75;;
37847;SDS011;23688;33.130;-117.188;2023-02-14T09:04:20;36.15;;;6.35;;
37847;SDS011;23688;33.130;-117.188;2023-02-14T09:06:46;36.53;;;6.15;;
37847;SDS011;23688;33.130;-117.188;2023-02-14T09:09:13;36.58;;;5.72;;
37847;SDS011;23688;33.130;-117.188;2023-02-14T09:11:43;31.70;;;5.25;;
37847;SDS011;23688;33.130;-117.188;2023-02-14T09:14:10;34.35;;;5.95;;
37847;SDS011;23688;33.130;-117.188;2023-02-14T09:16:36;31.10;;;5.80;;
37847;SDS011;23688;33.130;-117.188;2023-02-14T09:19:03;34.08;;;6.13;;
37847;SDS011;23688;33.130;-117.188;2023-02-14T09:21:32;26.35;;;5.32;;
37847;SDS011;23688;33.130;-117.188;2023-02-14T09:26:24;22.50;;;4.65;;
37847;SDS011;23688;33.130;-117.188;2023-02-14T09:28:51;30.15;;;5.40;;
37847;SDS011;23688;33.130;-117.188;2023-02-14T09:31:22;25.35;;;4.85;;
37847;SDS011;23688;33.130;-117.188;2023-02-14T09:33:49;31.20;;;5.28;;
37847;SDS011;23688;33.130;-117.188;2023-02-14T09:36:18;24.23;;;5.32;;
37847;SDS011;23688;33.130;-117.188;2023-02-14T09:39:03;23.67;;;3.83;;
37847;SDS011;23688;33.130;-117.188;2023-02-14T09:41:32;27.95;;;5.03;;
37847;SDS011;23688;33.130;-117.188;2023-02-14T09:46:54;34.85;;;5.75;;
37847;SDS011;23688;33.130;-117.188;2023-02-14T09:49:30;34.33;;;5.80;;
37847;SDS011;23688;33.130;-117.188;2023-02-14T09:51:58;28.58;;;7.00;;
37847;SDS011;23688;33.130;-117.188;2023-02-14T09:54:27;32.60;;;4.45;;
37847;SDS011;23688;33.130;-117.188;2023-02-14T09:56:58;34.58;;;6.32;;
37847;SDS011;23688;33.130;-117.188;2023-02-14T09:59:42;41.47;;;5.68;;
37847;SDS011;23688;33.130;-117.188;2023-02-14T10:02:32;27.67;;;5.40;;
37847;SDS011;23688;33.130;-117.188;2023-02-14T10:05:20;35.20;;;4.28;;
37847;SDS011;23688;33.130;-117.188;2023-02-14T10:10:41;22.92;;;4.97;;
37847;SDS011;23688;33.130;-117.188;2023-02-14T10:13:13;39.15;;;5.43;;
37847;SDS011;23688;33.130;-117.188;2023-02-14T10:15:47;31.35;;;6.22;;
37847;SDS011;23688;33.130;-117.188;2023-02-14T10:18:26;35.55;;;6.05;;
37847;SDS011;23688;33.130;-117.188;2023-02-14T10:21:03;25.23;;;4.90;;
37847;SDS011;23688;33.130;-117.188;2023-02-14T10:23:35;38.85;;;5.30;;
37847;SDS011;23688;33.130;-117.188;2023-02-14T10:26:18;40.80;;;5.53;;
37847;SDS011;23688;33.130;-117.188;2023-02-14T10:28:48;29.80;;;5.60;;
37847;SDS011;23688;33.130;-117.188;2023-02-14T10:31:19;34.40;;;4.93;;
37847;SDS011;23688;33.130;-117.188;2023-02-14T10:34:07;32.17;;;5.32;;
37847;SDS011;23688;33.130;-117.188;2023-02-14T10:37:10;25.10;;;4.75;;
37847;SDS011;23688;33.130;-117.188;2023-02-14T10:39:51;29.52;;;5.55;;
37847;SDS011;23688;33.130;-117.188;2023-02-14T10:45:29;35.63;;;5.68;;
37847;SDS011;23688;33.130;-117.188;2023-02-14T10:48:10;31.23;;;5.25;;
37847;SDS011;23688;33.130;-117.188;2023-02-14T10:51:14;39.05;;;5.47;;
37847;SDS011;23688;33.130;-117.188;2023-02-14T10:56:21;33.58;;;5.70;;
37847;SDS011;23688;33.130;-117.188;2023-02-14T10:58:56;29.38;;;5.93;;
37847;SDS011;23688;33.130;-117.188;2023-02-14T11:01:27;28.80;;;5.32;;
37847;SDS011;23688;33.130;-117.188;2023-02-14T11:03:57;32.90;;;5.70;;
37847;SDS011;23688;33.130;-117.188;2023-02-14T11:06:31;25.65;;;5.53;;
37847;SDS011;23688;33.130;-117.188;2023-02-14T11:08:58;26.25;;;5.80;;
37847;SDS011;23688;33.130;-117.188;2023-02-14T11:13:56;33.30;;;6.22;;
37847;SDS011;23688;33.130;-117.188;2023-02-14T11:16:30;32.20;;;4.72;;
37847;SDS011;23688;33.130;-117.188;2023-02-14T11:21:40;54.25;;;7.20;;
37847;SDS011;23688;33.130;-117.188;2023-02-14T11:24:25;31.88;;;4.82;;
37847;SDS011;23688;33.130;-117.188;2023-02-14T11:26:58;31.38;;;5.78;;
37847;SDS011;23688;33.130;-117.188;2023-02-14T11:29:41;24.98;;;4.85;;
37847;SDS011;23688;33.130;-117.188;2023-02-14T11:32:11;44.00;;;5.35;;
37847;SDS011;23688;33.130;-117.188;2023-02-14T11:37:34;32.13;;;5.35;;
37847;SDS011;23688;33.130;-117.188;2023-02-14T11:40:08;32.22;;;5.10;;
37847;SDS011;23688;33.130;-117.188;2023-02-14T11:42:58;31.92;;;5.00;;
37847;SDS011;23688;33.130;-117.188;2023-02-14T11:45:41;28.23;;;5.18;;
37847;SDS011;23688;33.130;-117.188;2023-02-14T11:51:22;30.50;;;5.68;;
37847;SDS011;23688;33.130;-117.188;2023-02-14T11:56:12;37.78;;;5.35;;
37847;SDS011;23688;33.130;-117.188;2023-02-14T12:01:10;42.70;;;5.65;;
37847;SDS011;23688;33.130;-117.188;2023-02-14T12:03:46;28.92;;;5.70;;
37847;SDS011;23688;33.130;-117.188;2023-02-14T12:06:23;32.83;;;5.03;;
37847;SDS011;23688;33.130;-117.188;2023-02-14T12:12:01;28.02;;;5.25;;
37847;SDS011;23688;33.130;-117.188;2023-02-14T12:14:40;38.78;;;5.35;;
37847;SDS011;23688;33.130;-117.188;2023-02-14T12:22:21;38.17;;;5.72;;
37847;SDS011;23688;33.130;-117.188;2023-02-14T12:25:00;33.30;;;5.35;;
37847;SDS011;23688;33.130;-117.188;2023-02-14T12:30:11;33.50;;;5.63;;
37847;SDS011;23688;33.130;-117.188;2023-02-14T12:32:53;29.48;;;5.82;;
37847;SDS011;23688;33.130;-117.188;2023-02-14T12:35:35;45.90;;;6.75;;
37847;SDS011;23688;33.130;-117.188;2023-02-14T12:41:12;44.05;;;5.40;;
37847;SDS011;23688;33.130;-117.188;2023-02-14T12:44:26;30.60;;;6.57;;
37847;SDS011;23688;33.130;-117.188;2023-02-14T13:03:42;36.03;;;6.43;;
37847;SDS011;23688;33.130;-117.188;2023-02-14T13:12:09;28.08;;;5.00;;
37847;SDS011;23688;33.130;-117.188;2023-02-14T13:22:30;24.35;;;4.80;;
37847;SDS011;23688;33.130;-117.188;2023-02-14T13:25:00;27.95;;;5.82;;
37847;SDS011;23688;33.130;-117.188;2023-02-14T13:27:31;26.05;;;5.18;;
37847;SDS011;23688;33.130;-117.188;2023-02-14T13:33:20;22.20;;;4.35;;
37847;SDS011;23688;33.130;-117.188;2023-02-14T13:36:10;24.33;;;4.63;;
37847;SDS011;23688;33.130;-117.188;2023-02-14T13:38:56;28.83;;;5.47;;
37847;SDS011;23688;33.130;-117.188;2023-02-14T13:41:23;26.05;;;4.57;;
37847;SDS011;23688;33.130;-117.188;2023-02-14T13:43:58;27.95;;;5.00;;
37847;SDS011;23688;33.130;-117.188;2023-02-14T13:49:00;20.88;;;6.18;;
37847;SDS011;23688;33.130;-117.188;2023-02-14T13:51:45;23.38;;;4.07;;
37847;SDS011;23688;33.130;-117.188;2023-02-14T13:54:20;24.95;;;5.60;;
37847;SDS011;23688;33.130;-117.188;2023-02-14T13:56:57;25.48;;;5.90;;
37847;SDS011;23688;33.130;-117.188;2023-02-14T13:59:27;20.85;;;4.50;;
37847;SDS011;23688;33.130;-117.188;2023-02-14T14:02:00;26.73;;;5.40;;
37847;SDS011;23688;33.130;-117.188;2023-02-14T14:04:50;34.72;;;5.88;;
37847;SDS011;23688;33.130;-117.188;2023-02-14T14:07:21;25.30;;;4.25;;
37847;SDS011;23688;33.130;-117.188;2023-02-14T14:09:52;24.02;;;4.43;;
37847;SDS011;23688;33.130;-117.188;2023-02-14T14:17:32;20.17;;;4.43;;
37847;SDS011;23688;33.130;-117.188;2023-02-14T14:22:49;23.30;;;4.53;;
37847;SDS011;23688;33.130;-117.188;2023-02-14T14:25:36;23.60;;;4.97;;
37847;SDS011;23688;33.130;-117.188;2023-02-14T14:28:38;20.90;;;4.80;;
37847;SDS011;23688;33.130;-117.188;2023-02-14T14:30:57;25.67;;;5.00;;
37847;SDS011;23688;33.130;-117.188;2023-02-14T14:33:26;20.92;;;4.68;;
37847;SDS011;23688;33.130;-117.188;2023-02-14T14:36:07;21.75;;;4.22;;
37847;SDS011;23688;33.130;-117.188;2023-02-14T14:38:46;14.70;;;3.70;;
37847;SDS011;23688;33.130;-117.188;2023-02-14T14:41:15;22.58;;;3.97;;
37847;SDS011;23688;33.130;-117.188;2023-02-14T14:43:42;16.35;;;4.85;;
37847;SDS011;23688;33.130;-117.188;2023-02-14T14:46:12;18.77;;;4.80;;
37847;SDS011;23688;33.130;-117.188;2023-02-14T14:48:46;25.23;;;4.10;;
37847;SDS011;23688;33.130;-117.188;2023-02-14T14:51:29;15.77;;;3.22;;
37847;SDS011;23688;33.130;-117.188;2023-02-14T14:56:30;21.30;;;5.00;;
37847;SDS011;23688;33.130;-117.188;2023-02-14T14:59:15;19.65;;;3.65;;
37847;SDS011;23688;33.130;-117.188;2023-02-14T15:01:52;20.05;;;3.95;;
37847;SDS011;23688;33.130;-117.188;2023-02-14T15:04:24;24.70;;;5.25;;
37847;SDS011;23688;33.130;-117.188;2023-02-14T15:06:54;23.63;;;3.75;;
37847;SDS011;23688;33.130;-117.188;2023-02-14T15:09:23;17.25;;;3.63;;
37847;SDS011;23688;33.130;-117.188;2023-02-14T15:11:57;20.23;;;3.50;;
37847;SDS011;23688;33.130;-117.188;2023-02-14T15:14:47;17.20;;;4.25;;
37847;SDS011;23688;33.130;-117.188;2023-02-14T15:17:20;10.20;;;2.83;;
37847;SDS011;23688;33.130;-117.188;2023-02-14T15:19:51;18.25;;;4.05;;
37847;SDS011;23688;33.130;-117.188;2023-02-14T15:22:32;22.02;;;3.42;;
37847;SDS011;23688;33.130;-117.188;2023-02-14T15:25:06;18.70;;;4.38;;
37847;SDS011;23688;33.130;-117.188;2023-02-14T15:27:38;15.57;;;3.40;;
37847;SDS011;23688;33.130;-117.188;2023-02-14T15:30:08;19.48;;;3.47;;
37847;SDS011;23688;33.130;-117.188;2023-02-14T15:32:53;12.30;;;3.30;;
37847;SDS011;23688;33.130;-117.188;2023-02-14T15:35:24;25.45;;;4.72;;
37847;SDS011;23688;33.130;-117.188;2023-02-14T15:37:56;21.80;;;4.13;;
37847;SDS011;23688;33.130;-117.188;2023-02-14T15:40:27;20.35;;;3.75;;
37847;SDS011;23688;33.130;-117.188;2023-02-14T15:43:12;18.00;;;4.28;;
37847;SDS011;23688;33.130;-117.188;2023-02-14T15:45:52;15.18;;;3.83;;
37847;SDS011;23688;33.130;-117.188;2023-02-14T15:50:54;17.67;;;3.40;;
37847;SDS011;23688;33.130;-117.188;2023-02-14T15:53:35;15.10;;;3.03;;
37847;SDS011;23688;33.130;-117.188;2023-02-14T15:56:09;27.92;;;4.55;;
37847;SDS011;23688;33.130;-117.188;2023-02-14T15:58:43;23.05;;;3.95;;
37847;SDS011;23688;33.130;-117.188;2023-02-14T16:01:10;14.48;;;3.42;;
37847;SDS011;23688;33.130;-117.188;2023-02-14T16:03:38;16.88;;;3.90;;
37847;SDS011;23688;33.130;-117.188;2023-02-14T16:06:13;15.35;;;4.30;;
37847;SDS011;23688;33.130;-117.188;2023-02-14T16:08:54;18.42;;;3.85;;
37847;SDS011;23688;33.130;-117.188;2023-02-14T16:11:26;12.93;;;3.85;;
37847;SDS011;23688;33.130;-117.188;2023-02-14T16:13:54;18.42;;;3.50;;
37847;SDS011;23688;33.130;-117.188;2023-02-14T16:16:21;18.02;;;3.35;;
37847;SDS011;23688;33.130;-117.188;2023-02-14T16:18:49;14.65;;;3.53;;
37847;SDS011;23688;33.130;-117.188;2023-02-14T16:21:27;17.20;;;4.15;;
37847;SDS011;23688;33.130;-117.188;2023-02-14T16:26:38;18.80;;;3.80;;
37847;SDS011;23688;33.130;-117.188;2023-02-14T16:29:07;21.15;;;3.42;;
37847;SDS011;23688;33.130;-117.188;2023-02-14T16:31:39;12.90;;;2.83;;